Time;durP1;ratioP1;P1;durP2;ratioP2;P2;SDS_P1;SDS_P2;PMS_P1;PMS_P2;Temp;Humidity;BMP_temperature;BMP_pressure;BME280_temperature;BME280_humidity;BME280_pressure;Samples;Min_cycle;Max_cycle;Signal;HPM_P1;HPM_P2
2022/07/13 00:01:56;;;;;;;0.65;0.55;;;19.80;99.90;;;;;;5042324;28;20224;-61
2022/07/13 00:04:23;;;;;;;0.45;0.45;;;19.80;99.90;;;;;;5053592;28;20228;-62
2022/07/13 00:06:51;;;;;;;0.45;0.45;;;19.80;99.90;;;;;;5056069;28;20255;-63
2022/07/13 00:09:18;;;;;;;0.40;0.40;;;19.80;99.90;;;;;;5047498;28;20362;-63
2022/07/13 00:11:45;;;;;;;0.50;0.50;;;19.70;99.90;;;;;;5053172;28;20297;-62
2022/07/13 00:14:11;;;;;;;0.50;0.50;;;19.70;99.90;;;;;;5054069;28;20220;-62
2022/07/13 00:16:38;;;;;;;0.52;0.52;;;19.70;99.90;;;;;;5049815;28;20339;-63
2022/07/13 00:19:05;;;;;;;0.75;0.35;;;19.60;99.90;;;;;;5046719;28;20263;-63
2022/07/13 00:21:32;;;;;;;0.40;0.40;;;19.60;99.90;;;;;;5049434;28;20220;-62
2022/07/13 00:24:00;;;;;;;0.47;0.47;;;19.50;99.90;;;;;;5047058;28;20713;-64
2022/07/13 00:26:27;;;;;;;1.35;0.75;;;19.50;99.90;;;;;;5048213;28;20216;-63
2022/07/13 00:28:55;;;;;;;0.38;0.38;;;19.50;99.90;;;;;;5046360;28;20331;-62
2022/07/13 00:31:22;;;;;;;0.47;0.47;;;19.50;99.90;;;;;;5045522;28;20243;-62
2022/07/13 00:33:49;;;;;;;0.75;0.50;;;19.50;99.90;;;;;;5048339;28;20299;-63
2022/07/13 00:36:16;;;;;;;0.40;0.40;;;19.40;99.90;;;;;;5041986;28;20715;-62
2022/07/13 00:38:42;;;;;;;0.43;0.43;;;19.40;99.90;;;;;;5041266;28;20228;-62
2022/07/13 00:41:11;;;;;;;0.43;0.40;;;19.30;99.90;;;;;;5048437;28;20271;-64
2022/07/13 00:43:38;;;;;;;0.40;0.40;;;19.40;99.90;;;;;;5045380;28;20362;-64
2022/07/13 00:46:05;;;;;;;0.50;0.50;;;19.30;99.90;;;;;;5041578;28;20753;-63
2022/07/13 00:48:33;;;;;;;0.30;0.30;;;19.40;99.90;;;;;;5045511;28;20286;-62
2022/07/13 00:51:00;;;;;;;0.40;0.40;;;19.40;99.90;;;;;;5048127;28;20733;-63
2022/07/13 00:53:27;;;;;;;0.20;0.20;;;19.30;99.90;;;;;;5044302;28;20205;-63
2022/07/13 00:55:54;;;;;;;0.20;0.20;;;19.30;99.90;;;;;;5058401;22;20212;-63
2022/07/13 00:58:24;;;;;;;0.40;0.40;;;19.30;99.90;;;;;;5065993;28;20254;-64
2022/07/13 01:00:51;;;;;;;0.17;0.17;;;19.30;99.90;;;;;;5070108;28;20199;-62
2022/07/13 01:03:18;;;;;;;0.40;0.40;;;19.30;99.90;;;;;;5066406;28;20206;-63
2022/07/13 01:05:46;;;;;;;0.43;0.43;;;19.30;99.90;;;;;;5063095;28;20245;-62
2022/07/13 01:08:13;;;;;;;0.47;0.47;;;19.30;99.90;;;;;;5063585;28;20210;-63
2022/07/13 01:10:43;;;;;;;0.20;0.20;;;19.30;99.90;;;;;;5071293;28;20231;-62
2022/07/13 01:13:11;;;;;;;0.50;0.50;;;19.40;99.90;;;;;;5075256;28;20210;-62
2022/07/13 01:15:40;;;;;;;0.35;0.35;;;19.30;99.90;;;;;;5075721;28;20238;-63
2022/07/13 01:18:07;;;;;;;0.75;0.50;;;19.40;99.90;;;;;;5069529;28;20565;-62
2022/07/13 01:20:34;;;;;;;0.45;0.45;;;19.30;99.90;;;;;;5074015;28;20203;-63
2022/07/13 01:23:08;;;;;;;0.10;0.10;;;19.30;99.90;;;;;;5074918;28;20286;-62
2022/07/13 01:25:35;;;;;;;1.70;0.70;;;19.30;99.90;;;;;;5075376;28;20577;-61
2022/07/13 01:28:02;;;;;;;0.50;0.50;;;19.30;99.90;;;;;;5074819;28;20239;-62
2022/07/13 01:30:29;;;;;;;1.42;0.50;;;19.20;99.90;;;;;;5073063;28;20203;-62
2022/07/13 01:32:56;;;;;;;0.50;0.50;;;19.20;99.90;;;;;;5073349;28;20203;-62
2022/07/13 01:35:24;;;;;;;0.40;0.40;;;19.20;99.90;;;;;;5065923;28;20265;-62
2022/07/13 01:37:52;;;;;;;0.33;0.33;;;19.20;99.90;;;;;;5076426;28;20647;-63
2022/07/13 01:40:20;;;;;;;0.30;0.30;;;19.30;99.90;;;;;;5073108;28;20291;-63
2022/07/13 01:42:48;;;;;;;0.30;0.30;;;19.30;99.90;;;;;;5074370;28;20203;-62
2022/07/13 01:45:16;;;;;;;0.80;0.80;;;19.20;99.90;;;;;;5074315;28;20631;-62
2022/07/13 01:47:45;;;;;;;0.40;0.40;;;19.20;99.90;;;;;;5074017;28;20759;-62
2022/07/13 01:50:13;;;;;;;0.38;0.38;;;19.10;99.90;;;;;;5073283;28;20294;-62
2022/07/13 01:52:40;;;;;;;0.40;0.40;;;19.10;99.90;;;;;;5073837;28;20278;-62
2022/07/13 01:55:09;;;;;;;0.43;0.43;;;19.00;99.90;;;;;;5066311;28;20290;-62
2022/07/13 01:57:38;;;;;;;0.95;0.50;;;18.90;99.90;;;;;;5072118;28;20653;-62
2022/07/13 02:00:09;;;;;;;0.30;0.30;;;19.00;99.90;;;;;;5070930;28;20217;-63
2022/07/13 02:02:36;;;;;;;0.40;0.40;;;18.90;99.90;;;;;;5072701;28;20282;-62
2022/07/13 02:05:03;;;;;;;0.52;0.50;;;18.90;99.90;;;;;;5073912;28;20585;-61
2022/07/13 02:07:30;;;;;;;0.40;0.40;;;18.80;99.90;;;;;;5073407;28;20231;-61
2022/07/13 02:09:57;;;;;;;0.43;0.43;;;18.80;99.90;;;;;;5066910;28;20235;-62
2022/07/13 02:12:24;;;;;;;0.32;0.32;;;18.70;99.90;;;;;;5068355;28;20287;-61
2022/07/13 02:14:52;;;;;;;0.43;0.43;;;18.80;99.90;;;;;;5073751;28;20293;-61
2022/07/13 02:17:19;;;;;;;0.20;0.20;;;18.70;99.90;;;;;;5074429;28;20302;-61
2022/07/13 02:19:46;;;;;;;0.50;0.50;;;18.60;99.90;;;;;;5072758;28;20209;-61
2022/07/13 02:22:13;;;;;;;0.50;0.50;;;18.50;99.90;;;;;;5072772;28;20290;-62
2022/07/13 02:24:40;;;;;;;0.50;0.50;;;18.50;99.90;;;;;;5073359;28;20207;-62
2022/07/13 02:27:06;;;;;;;0.50;0.50;;;18.40;99.90;;;;;;5065465;28;20322;-61
2022/07/13 02:29:33;;;;;;;0.40;0.40;;;18.40;99.90;;;;;;5072772;28;20266;-61
2022/07/13 02:32:01;;;;;;;0.40;0.40;;;18.40;99.90;;;;;;5073800;28;20294;-61
2022/07/13 02:34:28;;;;;;;0.40;0.40;;;18.40;99.90;;;;;;5073606;28;20294;-62
2022/07/13 02:36:55;;;;;;;0.40;0.40;;;18.40;99.90;;;;;;5075312;28;20648;-62
2022/07/13 02:39:22;;;;;;;0.30;0.30;;;18.40;99.90;;;;;;5075062;28;20203;-63
2022/07/13 02:41:50;;;;;;;1.05;0.50;;;18.30;99.90;;;;;;5076568;28;20271;-61
2022/07/13 02:44:17;;;;;;;0.40;0.40;;;18.30;99.90;;;;;;5082711;28;20210;-61
2022/07/13 02:46:44;;;;;;;0.47;0.40;;;18.30;99.90;;;;;;5080703;28;20250;-61
2022/07/13 02:49:12;;;;;;;0.28;0.28;;;18.30;99.90;;;;;;5074179;28;20310;-62
2022/07/13 02:51:39;;;;;;;0.40;0.40;;;18.20;99.90;;;;;;5074128;28;20204;-62
2022/07/13 02:54:06;;;;;;;0.37;0.30;;;18.20;99.90;;;;;;5074177;28;20199;-62
2022/07/13 02:56:33;;;;;;;0.30;0.30;;;18.20;99.90;;;;;;5074462;28;20677;-62
2022/07/13 02:58:59;;;;;;;0.50;0.50;;;18.20;99.90;;;;;;5071681;28;20200;-62
2022/07/13 03:01:26;;;;;;;0.50;0.50;;;18.10;99.90;;;;;;5073341;28;20214;-60
2022/07/13 03:03:53;;;;;;;0.50;0.50;;;18.10;99.90;;;;;;5072942;28;20207;-61
2022/07/13 03:06:21;;;;;;;0.50;0.50;;;18.10;99.90;;;;;;5072997;28;20227;-62
2022/07/13 03:08:48;;;;;;;0.30;0.30;;;18.10;99.90;;;;;;5072486;28;20743;-60
2022/07/13 03:11:15;;;;;;;0.40;0.40;;;18.10;99.90;;;;;;5070299;28;20198;-62
2022/07/13 03:13:42;;;;;;;0.40;0.40;;;18.00;99.90;;;;;;5073110;28;20290;-61
2022/07/13 03:16:09;;;;;;;0.40;0.40;;;18.00;99.90;;;;;;5072391;28;20254;-61
2022/07/13 03:18:35;;;;;;;0.43;0.43;;;17.90;99.90;;;;;;5072743;28;20203;-61
2022/07/13 03:21:03;;;;;;;0.60;0.60;;;17.80;99.90;;;;;;5071662;28;20684;-61
2022/07/13 03:23:31;;;;;;;0.40;0.40;;;17.90;99.90;;;;;;5072421;28;20999;-61
2022/07/13 03:25:57;;;;;;;0.40;0.40;;;17.90;99.90;;;;;;5073185;28;20227;-61
2022/07/13 03:28:24;;;;;;;0.60;0.60;;;17.80;99.90;;;;;;5072089;28;20226;-61
2022/07/13 03:30:51;;;;;;;0.40;0.40;;;17.80;99.90;;;;;;5079387;28;20298;-62
2022/07/13 03:33:18;;;;;;;0.40;0.40;;;17.80;99.90;;;;;;5082465;28;20208;-64
2022/07/13 03:35:45;;;;;;;0.85;0.60;;;17.70;99.90;;;;;;5082757;28;20234;-62
2022/07/13 03:38:12;;;;;;;0.43;0.43;;;17.70;99.90;;;;;;5084785;28;20195;-62
2022/07/13 03:40:40;;;;;;;0.30;0.30;;;17.70;99.90;;;;;;5072096;28;20204;-62
2022/07/13 03:43:07;;;;;;;0.38;0.38;;;17.70;99.90;;;;;;5065187;28;20290;-63
2022/07/13 03:45:34;;;;;;;0.30;0.30;;;17.60;99.90;;;;;;5072012;28;20725;-62
2022/07/13 03:48:01;;;;;;;0.73;0.47;;;17.60;99.90;;;;;;5072584;28;20227;-62
2022/07/13 03:50:28;;;;;;;0.30;0.30;;;17.60;99.90;;;;;;5071359;28;20293;-62
2022/07/13 03:52:55;;;;;;;0.40;0.40;;;17.60;99.90;;;;;;5072950;28;20294;-63
2022/07/13 03:55:22;;;;;;;0.40;0.40;;;17.60;99.90;;;;;;5072402;28;20203;-62
2022/07/13 03:57:50;;;;;;;0.57;0.57;;;17.60;99.90;;;;;;5073013;28;20223;-63
2022/07/13 04:00:17;;;;;;;0.40;0.40;;;17.60;99.90;;;;;;5072069;28;20835;-62
2022/07/13 04:02:44;;;;;;;0.40;0.40;;;17.60;99.90;;;;;;5069227;28;20689;-62
2022/07/13 04:05:11;;;;;;;0.40;0.40;;;17.60;99.90;;;;;;5074853;28;20209;-62
2022/07/13 04:07:38;;;;;;;0.30;0.30;;;17.60;99.90;;;;;;5073219;28;20697;-64
2022/07/13 04:10:06;;;;;;;0.20;0.20;;;17.60;99.90;;;;;;5087347;28;20234;-62
2022/07/13 04:12:32;;;;;;;0.40;0.40;;;17.60;99.90;;;;;;5086983;28;20641;-63
2022/07/13 04:15:01;;;;;;;0.40;0.40;;;17.60;99.90;;;;;;5084416;28;20226;-63
2022/07/13 04:17:28;;;;;;;0.40;0.40;;;17.60;99.90;;;;;;5073754;28;20251;-62
2022/07/13 04:19:55;;;;;;;0.33;0.33;;;17.60;99.90;;;;;;5072083;28;20672;-62
2022/07/13 04:22:22;;;;;;;0.40;0.40;;;17.70;99.90;;;;;;5074034;28;20214;-63
2022/07/13 04:24:48;;;;;;;0.40;0.40;;;17.60;99.90;;;;;;5073067;28;20502;-63
2022/07/13 04:27:15;;;;;;;0.50;0.50;;;17.70;99.90;;;;;;5073462;28;20215;-63
2022/07/13 04:29:42;;;;;;;0.40;0.40;;;17.70;99.90;;;;;;5072322;28;20947;-62
2022/07/13 04:32:10;;;;;;;0.40;0.40;;;17.70;99.90;;;;;;5073121;28;20244;-62
2022/07/13 04:34:37;;;;;;;0.43;0.40;;;17.90;99.90;;;;;;5073025;28;20238;-62
2022/07/13 04:37:04;;;;;;;0.43;0.43;;;18.00;99.90;;;;;;5071393;28;20211;-61
2022/07/13 04:39:31;;;;;;;0.40;0.40;;;18.10;99.90;;;;;;5065040;28;20207;-62
2022/07/13 04:41:59;;;;;;;0.47;0.47;;;18.20;99.90;;;;;;5071017;28;20200;-63
2022/07/13 04:44:26;;;;;;;0.73;0.73;;;18.40;99.90;;;;;;5069573;28;20206;-62
2022/07/13 04:46:53;;;;;;;0.55;0.50;;;18.70;99.90;;;;;;5067222;28;20950;-63
2022/07/13 04:49:22;;;;;;;0.60;0.45;;;19.00;99.90;;;;;;5068662;28;20637;-62
2022/07/13 04:51:49;;;;;;;0.60;0.60;;;19.30;99.90;;;;;;5066515;28;20206;-62
2022/07/13 04:54:16;;;;;;;0.60;0.60;;;19.40;99.90;;;;;;5067960;28;20203;-63
2022/07/13 04:56:43;;;;;;;0.33;0.33;;;19.50;99.90;;;;;;5056683;28;20258;-63
2022/07/13 04:59:10;;;;;;;0.40;0.40;;;19.60;99.90;;;;;;5069004;28;20210;-63
2022/07/13 05:01:37;;;;;;;0.40;0.40;;;19.70;99.90;;;;;;5069192;28;20653;-62
2022/07/13 05:04:04;;;;;;;0.40;0.40;;;19.70;99.90;;;;;;5068536;28;20203;-62
2022/07/13 05:06:33;;;;;;;0.43;0.40;;;19.80;99.90;;;;;;5071200;28;20309;-63
2022/07/13 05:09:00;;;;;;;0.70;0.70;;;19.90;99.90;;;;;;5069030;28;20247;-63
2022/07/13 05:11:27;;;;;;;0.40;0.40;;;19.80;99.90;;;;;;5065776;28;20226;-60
2022/07/13 05:13:54;;;;;;;0.30;0.30;;;20.00;99.90;;;;;;5068682;28;20305;-62
2022/07/13 05:16:21;;;;;;;0.70;0.60;;;20.00;99.90;;;;;;5070847;28;20773;-60
2022/07/13 05:18:48;;;;;;;0.50;0.50;;;20.20;99.90;;;;;;5067329;28;20286;-63
2022/07/13 05:21:15;;;;;;;1.13;0.70;;;20.30;99.90;;;;;;5067969;28;20218;-61
2022/07/13 05:23:44;;;;;;;0.88;0.65;;;20.50;99.90;;;;;;5059924;28;20205;-62
2022/07/13 05:26:10;;;;;;;0.50;0.50;;;20.70;99.90;;;;;;5070859;28;20731;-62
2022/07/13 05:28:38;;;;;;;0.40;0.40;;;21.00;99.90;;;;;;5069611;28;20603;-62
2022/07/13 05:31:05;;;;;;;0.80;0.80;;;20.90;99.90;;;;;;5067509;28;20226;-63
2022/07/13 05:33:32;;;;;;;0.70;0.70;;;20.90;99.90;;;;;;5063006;28;20647;-61
2022/07/13 05:35:58;;;;;;;0.40;0.40;;;21.00;99.90;;;;;;5069854;28;20326;-61
2022/07/13 05:38:25;;;;;;;0.60;0.60;;;21.20;99.90;;;;;;5062685;28;20315;-67
2022/07/13 05:40:54;;;;;;;1.95;0.80;;;21.20;99.90;;;;;;5068150;28;20218;-68
2022/07/13 05:43:21;;;;;;;0.70;0.70;;;21.20;99.90;;;;;;5060756;28;20195;-68
2022/07/13 05:45:48;;;;;;;0.70;0.70;;;21.30;99.90;;;;;;5065260;28;20207;-66
2022/07/13 05:48:14;;;;;;;0.80;0.80;;;21.30;99.90;;;;;;5065849;28;20226;-65
2022/07/13 05:50:41;;;;;;;0.60;0.60;;;21.20;99.90;;;;;;5066804;28;20303;-66
2022/07/13 05:53:08;;;;;;;0.57;0.57;;;21.40;99.90;;;;;;5059813;28;20342;-67
2022/07/13 05:55:35;;;;;;;0.52;0.52;;;21.60;99.90;;;;;;5066903;28;20257;-66
2022/07/13 05:58:04;;;;;;;0.60;0.60;;;21.60;99.90;;;;;;5064651;28;20211;-66
2022/07/13 06:00:31;;;;;;;0.65;0.65;;;21.80;99.90;;;;;;5069257;28;20203;-69
2022/07/13 06:02:57;;;;;;;0.73;0.73;;;22.00;99.90;;;;;;5064507;28;20291;-66
2022/07/13 06:05:25;;;;;;;0.60;0.60;;;22.20;99.90;;;;;;5075315;28;20207;-67
2022/07/13 06:07:52;;;;;;;0.80;0.80;;;22.40;99.90;;;;;;5077695;28;20227;-66
2022/07/13 06:10:18;;;;;;;0.50;0.50;;;22.60;99.90;;;;;;5072598;28;20239;-66
2022/07/13 06:12:45;;;;;;;0.53;0.53;;;22.80;99.90;;;;;;5064885;28;20207;-66
2022/07/13 06:15:13;;;;;;;0.73;0.73;;;22.80;99.90;;;;;;5072824;28;20250;-67
2022/07/13 06:17:40;;;;;;;0.82;0.60;;;22.70;99.90;;;;;;5068678;28;20211;-64
2022/07/13 06:20:08;;;;;;;0.50;0.50;;;22.70;99.90;;;;;;5061619;28;20306;-67
2022/07/13 06:22:35;;;;;;;0.60;0.60;;;22.90;99.90;;;;;;5071339;28;20243;-65
2022/07/13 06:25:03;;;;;;;0.60;0.52;;;22.90;99.90;;;;;;5073936;28;20278;-65
2022/07/13 06:27:30;;;;;;;0.60;0.60;;;22.80;99.90;;;;;;5066599;28;20231;-67
2022/07/13 06:29:58;;;;;;;0.55;0.55;;;22.70;99.90;;;;;;5091770;28;20195;-66
2022/07/13 06:32:26;;;;;;;0.80;0.80;;;22.50;99.90;;;;;;5093887;28;20198;-66
2022/07/13 06:34:53;;;;;;;0.60;0.60;;;22.50;99.90;;;;;;5090436;28;20203;-68
2022/07/13 06:37:19;;;;;;;0.90;0.90;;;22.40;99.90;;;;;;5091052;28;20238;-67
2022/07/13 06:39:46;;;;;;;0.77;0.77;;;22.50;99.90;;;;;;5072483;28;20208;-66
2022/07/13 06:42:13;;;;;;;0.60;0.60;;;22.60;99.90;;;;;;5069965;28;20209;-66
2022/07/13 06:44:40;;;;;;;1.45;0.60;;;22.80;99.90;;;;;;5072500;28;20290;-66
2022/07/13 06:47:07;;;;;;;0.77;0.70;;;22.90;99.90;;;;;;5069956;28;20704;-66
2022/07/13 06:49:35;;;;;;;0.80;0.80;;;22.90;99.90;;;;;;5073084;28;20238;-66
2022/07/13 06:52:02;;;;;;;0.70;0.70;;;23.10;99.90;;;;;;5069680;28;20234;-66
2022/07/13 06:54:29;;;;;;;1.17;0.70;;;23.20;99.90;;;;;;5067416;28;20630;-66
2022/07/13 06:56:56;;;;;;;0.60;0.60;;;23.30;99.90;;;;;;5062214;28;20234;-67
2022/07/13 06:59:22;;;;;;;0.70;0.70;;;23.30;99.90;;;;;;5067781;28;20227;-67
2022/07/13 07:01:50;;;;;;;0.88;0.88;;;23.30;99.90;;;;;;5064767;28;20282;-65
2022/07/13 07:04:17;;;;;;;0.82;0.82;;;23.30;99.90;;;;;;5070075;28;20206;-67
2022/07/13 07:06:45;;;;;;;1.10;1.00;;;23.50;99.90;;;;;;5073180;28;20250;-67
2022/07/13 07:09:12;;;;;;;0.95;0.95;;;23.80;99.90;;;;;;5086153;22;20231;-65
2022/07/13 07:11:39;;;;;;;1.05;1.00;;;24.10;99.90;;;;;;5063208;28;20206;-65
2022/07/13 07:14:06;;;;;;;3.23;2.03;;;24.20;99.90;;;;;;5067531;28;20283;-64
2022/07/13 07:16:33;;;;;;;1.35;1.25;;;24.40;99.90;;;;;;5061046;28;20615;-63
2022/07/13 07:19:00;;;;;;;1.10;1.10;;;24.60;99.90;;;;;;5056935;28;20220;-64
2022/07/13 07:21:27;;;;;;;1.00;1.00;;;24.70;99.90;;;;;;5053388;28;20578;-65
2022/07/13 07:23:55;;;;;;;1.30;1.20;;;24.70;99.90;;;;;;5051480;28;20620;-63
2022/07/13 07:26:22;;;;;;;0.70;0.70;;;24.70;99.90;;;;;;5048505;28;20246;-64
2022/07/13 07:28:49;;;;;;;0.68;0.63;;;24.80;99.90;;;;;;5048620;28;20228;-64
2022/07/13 07:31:16;;;;;;;0.60;0.60;;;24.90;99.90;;;;;;5050334;28;20236;-65
2022/07/13 07:33:43;;;;;;;0.60;0.60;;;25.00;99.90;;;;;;5051670;28;20200;-65
2022/07/13 07:36:10;;;;;;;0.32;0.32;;;25.10;99.90;;;;;;5049151;28;20200;-65
2022/07/13 07:38:36;;;;;;;0.70;0.70;;;25.20;99.90;;;;;;5051053;28;20330;-66
2022/07/13 07:41:05;;;;;;;1.20;0.70;;;25.30;99.90;;;;;;5046138;28;20287;-62
2022/07/13 07:43:32;;;;;;;1.77;1.67;;;25.30;99.90;;;;;;5049916;28;20214;-63
2022/07/13 07:45:58;;;;;;;1.58;1.48;;;25.20;99.90;;;;;;5050877;28;20206;-64
2022/07/13 07:48:25;;;;;;;0.80;0.80;;;25.20;99.90;;;;;;5045926;28;20887;-64
2022/07/13 07:50:52;;;;;;;0.88;0.88;;;25.00;99.90;;;;;;5048643;28;20627;-66
2022/07/13 07:53:19;;;;;;;0.70;0.70;;;25.00;99.90;;;;;;5040856;28;20283;-64
2022/07/13 07:55:46;;;;;;;0.68;0.68;;;24.80;99.90;;;;;;5047130;28;20670;-63
2022/07/13 07:58:15;;;;;;;1.23;0.70;;;24.70;99.90;;;;;;5039754;28;20575;-65
2022/07/13 08:00:41;;;;;;;0.80;0.80;;;24.80;99.90;;;;;;5043099;28;20265;-64
2022/07/13 08:03:09;;;;;;;0.70;0.70;;;25.00;99.90;;;;;;5041106;28;20224;-64
2022/07/13 08:05:36;;;;;;;1.13;1.00;;;25.00;99.90;;;;;;5043562;28;20238;-66
2022/07/13 08:08:04;;;;;;;0.80;0.80;;;24.90;99.90;;;;;;5040054;28;20311;-64
2022/07/13 08:10:31;;;;;;;0.80;0.80;;;25.00;99.90;;;;;;5038126;28;20686;-63
2022/07/13 08:13:00;;;;;;;0.73;0.73;;;25.30;99.90;;;;;;5047797;28;20658;-64
2022/07/13 08:15:28;;;;;;;0.85;0.73;;;25.60;99.90;;;;;;5039827;28;20208;-64
2022/07/13 08:17:55;;;;;;;0.98;0.80;;;25.70;99.90;;;;;;5045174;28;20295;-64
2022/07/13 08:20:22;;;;;;;0.82;0.82;;;25.90;99.90;;;;;;5042683;28;20232;-63
2022/07/13 08:22:49;;;;;;;0.70;0.70;;;26.00;99.90;;;;;;5036405;28;20232;-64
2022/07/13 08:25:17;;;;;;;0.80;0.80;;;26.20;99.90;;;;;;5042516;28;20571;-66
2022/07/13 08:27:43;;;;;;;0.60;0.60;;;26.10;99.90;;;;;;5035767;28;20205;-64
2022/07/13 08:30:11;;;;;;;0.88;0.80;;;26.20;99.90;;;;;;5040305;28;20255;-65
2022/07/13 08:32:40;;;;;;;0.88;0.77;;;26.20;99.90;;;;;;5035735;28;20212;-65
2022/07/13 08:40:41;;;;;;;1.95;1.20;;;26.20;99.90;;;;;;5038227;28;20207;-63
2022/07/13 08:43:08;;;;;;;0.60;0.60;;;26.40;99.90;;;;;;5039967;28;20197;-65
2022/07/13 08:45:35;;;;;;;1.30;0.73;;;26.70;99.90;;;;;;5038730;28;20214;-63
2022/07/13 08:48:13;;;;;;;0.60;0.60;;;26.80;99.90;;;;;;5039006;28;20311;-65
2022/07/13 08:50:41;;;;;;;0.75;0.75;;;26.80;99.90;;;;;;5034139;28;20291;-65
2022/07/13 08:53:08;;;;;;;0.70;0.70;;;26.80;99.90;;;;;;5039014;28;20208;-65
2022/07/13 08:55:36;;;;;;;0.63;0.63;;;26.90;99.90;;;;;;5039110;28;20295;-65
2022/07/13 08:58:03;;;;;;;0.70;0.70;;;27.00;99.90;;;;;;5039337;28;20204;-65
2022/07/13 09:00:30;;;;;;;0.70;0.70;;;26.90;99.90;;;;;;5035600;28;20254;-64
2022/07/13 09:02:57;;;;;;;0.70;0.70;;;26.90;99.90;;;;;;5040867;28;20282;-63
2022/07/13 09:05:27;;;;;;;0.60;0.60;;;27.20;99.90;;;;;;5044757;28;20828;-64
2022/07/13 09:08:05;;;;;;;0.98;0.88;;;27.40;99.90;;;;;;5041441;28;20204;-64
2022/07/13 09:10:32;;;;;;;0.60;0.60;;;27.60;99.90;;;;;;5031594;28;20212;-64
2022/07/13 09:12:59;;;;;;;1.75;0.80;;;27.50;99.90;;;;;;5040787;28;20263;-64
2022/07/13 09:15:26;;;;;;;1.85;0.70;;;27.50;99.90;;;;;;5040361;28;20325;-64
2022/07/13 09:17:53;;;;;;;0.80;0.75;;;27.50;99.90;;;;;;5048515;28;20269;-65
2022/07/13 09:20:25;;;;;;;0.60;0.60;;;27.30;99.90;;;;;;5045763;28;20710;-65
2022/07/13 09:22:53;;;;;;;0.60;0.60;;;27.30;99.90;;;;;;5036337;28;20220;-66
2022/07/13 09:25:28;;;;;;;0.60;0.60;;;27.50;99.90;;;;;;5044760;28;20730;-64
2022/07/13 09:27:56;;;;;;;0.65;0.65;;;27.50;99.90;;;;;;5036318;28;20263;-65
2022/07/13 09:30:24;;;;;;;2.63;0.60;;;27.60;99.90;;;;;;5041467;28;20638;-63
2022/07/13 09:32:53;;;;;;;0.57;0.57;;;27.70;99.90;;;;;;5036679;28;20228;-64
2022/07/13 09:35:20;;;;;;;0.52;0.52;;;27.70;99.90;;;;;;5046240;28;20199;-64
2022/07/13 09:37:49;;;;;;;0.63;0.63;;;27.80;99.90;;;;;;5045659;28;20273;-63
2022/07/13 09:40:18;;;;;;;0.52;0.52;;;28.00;99.90;;;;;;5037217;28;20572;-63
2022/07/13 09:46:08;;;;;;;0.65;0.65;;;28.10;99.90;;;;;;5049540;28;20693;-63
2022/07/13 09:48:24;;;;;;;0.70;0.70;;;28.20;99.90;;;;;;5040638;28;20235;-64
2022/07/13 09:50:54;;;;;;;0.65;0.65;;;28.40;99.90;;;;;;5043753;28;20310;-63
2022/07/13 09:53:30;;;;;;;0.55;0.55;;;28.50;99.90;;;;;;5042236;28;20204;-63
2022/07/13 09:55:58;;;;;;;0.82;0.60;;;28.60;99.90;;;;;;5046507;28;20287;-64
2022/07/13 09:58:29;;;;;;;1.00;0.60;;;28.80;99.90;;;;;;5040589;28;20588;-63
2022/07/13 10:00:58;;;;;;;0.70;0.70;;;28.80;99.90;;;;;;5038403;28;20669;-64
2022/07/13 10:03:25;;;;;;;0.60;0.60;;;28.90;99.90;;;;;;5041290;28;20204;-64
2022/07/13 10:05:54;;;;;;;0.50;0.50;;;28.90;99.90;;;;;;5043049;28;20199;-62
2022/07/13 10:08:21;;;;;;;1.05;0.75;;;29.00;99.90;;;;;;5039281;28;20220;-64
2022/07/13 10:10:52;;;;;;;0.50;0.50;;;29.10;99.90;;;;;;5040792;28;20211;-65
2022/07/13 10:13:19;;;;;;;0.50;0.50;;;29.10;99.90;;;;;;5040930;28;20196;-66
2022/07/13 10:15:46;;;;;;;0.90;0.60;;;29.10;99.90;;;;;;5042602;28;20314;-63
2022/07/13 10:18:22;;;;;;;0.60;0.60;;;29.20;99.90;;;;;;5048042;28;20230;-64
2022/07/13 10:20:53;;;;;;;0.60;0.60;;;29.30;99.90;;;;;;5043139;28;20283;-64
2022/07/13 10:23:34;;;;;;;0.50;0.50;;;29.40;99.90;;;;;;5039362;28;20975;-66
2022/07/13 10:26:02;;;;;;;0.70;0.70;;;29.50;99.90;;;;;;5042774;28;20204;-64
2022/07/13 10:28:29;;;;;;;0.90;0.90;;;29.70;99.90;;;;;;5037680;28;20232;-64
2022/07/13 10:30:56;;;;;;;0.70;0.70;;;29.70;99.90;;;;;;5040709;28;20232;-64
2022/07/13 10:33:25;;;;;;;0.60;0.60;;;29.80;99.90;;;;;;5033020;28;20578;-64
2022/07/13 10:35:54;;;;;;;0.60;0.60;;;29.90;99.90;;;;;;5046828;28;20677;-63
2022/07/13 10:38:26;;;;;;;0.68;0.68;;;30.00;99.90;;;;;;5041263;28;20224;-64
2022/07/13 10:41:19;;;;;;;0.60;0.60;;;29.60;99.90;;;;;;5040582;28;20228;-64
2022/07/13 10:43:54;;;;;;;0.73;0.73;;;29.60;99.90;;;;;;5040940;28;20211;-64
2022/07/13 10:46:49;;;;;;;0.70;0.70;;;29.60;99.90;;;;;;5036608;28;20295;-65
2022/07/13 10:49:35;;;;;;;0.60;0.60;;;29.90;99.90;;;;;;5040091;28;20461;-65
2022/07/13 10:52:51;;;;;;;0.50;0.50;;;30.00;99.90;;;;;;5043532;28;20208;-65
2022/07/13 10:55:28;;;;;;;0.70;0.70;;;29.90;99.90;;;;;;5041594;28;20296;-64
2022/07/13 10:57:57;;;;;;;0.40;0.40;;;29.90;99.90;;;;;;5040672;28;20282;-64
2022/07/13 11:00:42;;;;;;;0.60;0.60;;;30.20;99.90;;;;;;5039847;28;20208;-64
2022/07/13 11:03:26;;;;;;;0.60;0.60;;;30.50;99.90;;;;;;5043623;28;20196;-65
2022/07/13 11:06:07;;;;;;;0.55;0.55;;;30.50;99.90;;;;;;5042024;28;20212;-64
2022/07/13 11:08:34;;;;;;;0.60;0.60;;;30.50;99.90;;;;;;5046809;28;20662;-63
2022/07/13 11:11:16;;;;;;;0.65;0.65;;;30.50;99.90;;;;;;5040022;28;20693;-63
2022/07/13 11:13:46;;;;;;;0.77;0.77;;;30.40;99.90;;;;;;5044790;28;20236;-63
2022/07/13 11:16:14;;;;;;;0.80;0.80;;;30.40;99.90;;;;;;5046971;28;20207;-65
2022/07/13 11:18:42;;;;;;;0.80;0.80;;;30.50;99.90;;;;;;5053572;28;20240;-65
2022/07/13 11:21:12;;;;;;;0.85;0.60;;;30.60;99.90;;;;;;5041652;28;20231;-65
2022/07/13 11:26:54;;;;;;;0.65;0.60;;;30.90;99.90;;;;;;5017496;28;20211;-63
2022/07/13 11:29:31;;;;;;;0.60;0.60;;;30.90;99.90;;;;;;5044787;28;20219;-64
2022/07/13 11:31:59;;;;;;;0.70;0.70;;;30.90;99.90;;;;;;5041842;28;20211;-64
2022/07/13 11:34:26;;;;;;;0.47;0.45;;;31.20;99.90;;;;;;5046284;28;20235;-64
2022/07/13 11:36:55;;;;;;;0.95;0.57;;;31.20;99.90;;;;;;5040796;28;20296;-65
2022/07/13 11:39:23;;;;;;;0.75;0.68;;;31.20;99.90;;;;;;5040969;28;20217;-65
2022/07/13 11:41:51;;;;;;;0.90;0.70;;;31.50;99.90;;;;;;5040223;28;20223;-64
2022/07/13 11:44:21;;;;;;;0.43;0.43;;;32.00;99.90;;;;;;5038819;28;20215;-65
2022/07/13 11:46:50;;;;;;;1.20;0.60;;;32.30;99.90;;;;;;5040798;28;20667;-64
2022/07/13 11:49:16;;;;;;;0.50;0.50;;;32.40;99.90;;;;;;5039439;28;20225;-64
2022/07/13 11:51:44;;;;;;;0.40;0.40;;;32.20;99.90;;;;;;5035627;28;20304;-64
2022/07/13 11:54:12;;;;;;;0.90;0.90;;;32.10;99.90;;;;;;5038348;28;20292;-64
2022/07/13 11:56:47;;;;;;;1.17;0.70;;;31.90;99.90;;;;;;5036946;28;20283;-64
2022/07/13 11:59:15;;;;;;;0.73;0.70;;;31.90;99.90;;;;;;5044226;28;20224;-64
2022/07/13 12:01:50;;;;;;;0.60;0.60;;;32.00;99.90;;;;;;5038634;28;20235;-65
2022/07/13 12:04:23;;;;;;;0.70;0.70;;;32.30;99.90;;;;;;5044089;28;20208;-63
2022/07/13 12:06:50;;;;;;;1.02;0.82;;;31.90;99.90;;;;;;5052745;28;20196;-64
2022/07/13 12:09:20;;;;;;;0.80;0.80;;;31.70;99.90;;;;;;5045280;28;20227;-66
2022/07/13 12:11:47;;;;;;;1.27;0.65;;;31.70;99.90;;;;;;5047944;28;20697;-64
2022/07/13 12:14:15;;;;;;;1.60;0.90;;;31.70;99.90;;;;;;5048228;28;20200;-65
2022/07/13 12:16:43;;;;;;;0.50;0.50;;;31.70;99.90;;;;;;5048296;28;20229;-65
2022/07/13 12:19:11;;;;;;;0.73;0.70;;;31.80;99.90;;;;;;5045135;28;20307;-64
2022/07/13 12:21:38;;;;;;;1.08;0.63;;;31.80;99.90;;;;;;5046953;28;20265;-64
2022/07/13 12:24:06;;;;;;;0.60;0.60;;;31.70;99.90;;;;;;5046664;28;20301;-64
2022/07/13 12:26:33;;;;;;;0.70;0.70;;;31.50;99.90;;;;;;5048822;28;20212;-64
2022/07/13 12:29:00;;;;;;;0.65;0.65;;;31.50;99.90;;;;;;5044461;28;20319;-64
2022/07/13 12:31:27;;;;;;;0.68;0.68;;;31.60;99.90;;;;;;5044178;28;20211;-64
2022/07/13 12:33:54;;;;;;;0.80;0.80;;;31.80;99.90;;;;;;5045227;28;20210;-64
2022/07/13 12:36:25;;;;;;;1.88;1.02;;;32.00;99.90;;;;;;5046603;28;20231;-64
2022/07/13 12:39:00;;;;;;;0.88;0.88;;;32.00;99.90;;;;;;5044595;28;20318;-64
2022/07/13 12:41:29;;;;;;;0.80;0.80;;;31.90;99.90;;;;;;5042781;28;20670;-64
2022/07/13 12:43:57;;;;;;;0.90;0.90;;;32.10;99.90;;;;;;5045060;28;20290;-64
2022/07/13 12:46:24;;;;;;;0.85;0.85;;;32.30;99.90;;;;;;5042362;28;20713;-65
2022/07/13 12:49:00;;;;;;;0.60;0.60;;;32.50;99.90;;;;;;5045661;28;20230;-64
2022/07/13 12:51:48;;;;;;;0.70;0.70;;;32.60;99.90;;;;;;5038532;28;20294;-66
2022/07/13 12:54:15;;;;;;;0.70;0.70;;;32.50;99.90;;;;;;5044609;28;20200;-66
2022/07/13 12:56:51;;;;;;;3.42;1.10;;;32.40;99.90;;;;;;5047587;28;20196;-64
2022/07/13 12:59:19;;;;;;;0.60;0.60;;;32.30;99.90;;;;;;5043745;28;20298;-65
2022/07/13 13:01:47;;;;;;;0.60;0.60;;;32.20;99.90;;;;;;5043459;28;20208;-65
2022/07/13 13:04:16;;;;;;;1.75;0.60;;;32.20;99.90;;;;;;5045503;28;20231;-64
2022/07/13 13:06:45;;;;;;;0.50;0.50;;;32.30;99.50;;;;;;5041988;28;20310;-64